sensor_id;sensor_type;location;lat;lon;timestamp;temperature;humidity
28193;DHT22;15473;50.840;3.396;2022-12-18T00:01:36;2.60;99.90
28193;DHT22;15473;50.840;3.396;2022-12-18T00:04:21;2.60;99.90
28193;DHT22;15473;50.840;3.396;2022-12-18T00:06:55;2.50;99.90
28193;DHT22;15473;50.840;3.396;2022-12-18T00:09:25;2.50;99.90
28193;DHT22;15473;50.840;3.396;2022-12-18T00:11:57;2.50;99.90
28193;DHT22;15473;50.840;3.396;2022-12-18T00:14:27;2.40;99.90
28193;DHT22;15473;50.840;3.396;2022-12-18T00:16:57;2.40;99.90
28193;DHT22;15473;50.840;3.396;2022-12-18T00:19:29;2.40;99.90
28193;DHT22;15473;50.840;3.396;2022-12-18T00:21:59;2.30;99.90
28193;DHT22;15473;50.840;3.396;2022-12-18T00:24:33;2.30;99.90
28193;DHT22;15473;50.840;3.396;2022-12-18T00:27:04;2.30;99.90
28193;DHT22;15473;50.840;3.396;2022-12-18T00:29:34;2.30;99.90
28193;DHT22;15473;50.840;3.396;2022-12-18T00:32:10;2.20;99.90
28193;DHT22;15473;50.840;3.396;2022-12-18T00:34:40;2.20;99.90
28193;DHT22;15473;50.840;3.396;2022-12-18T00:37:14;2.20;99.90
28193;DHT22;15473;50.840;3.396;2022-12-18T00:39:50;2.20;99.90
28193;DHT22;15473;50.840;3.396;2022-12-18T00:42:21;2.20;99.90
28193;DHT22;15473;50.840;3.396;2022-12-18T00:45:11;2.10;99.90
28193;DHT22;15473;50.840;3.396;2022-12-18T00:47:47;2.10;99.90
28193;DHT22;15473;50.840;3.396;2022-12-18T00:50:25;2.10;99.90
28193;DHT22;15473;50.840;3.396;2022-12-18T00:53:02;2.00;99.90
28193;DHT22;15473;50.840;3.396;2022-12-18T00:55:32;2.00;99.90
28193;DHT22;15473;50.840;3.396;2022-12-18T00:58:10;2.00;99.90
28193;DHT22;15473;50.840;3.396;2022-12-18T01:00:48;1.90;99.90
28193;DHT22;15473;50.840;3.396;2022-12-18T01:03:18;1.90;99.90
28193;DHT22;15473;50.840;3.396;2022-12-18T01:05:55;1.90;99.90
28193;DHT22;15473;50.840;3.396;2022-12-18T01:08:31;1.90;99.90
28193;DHT22;15473;50.840;3.396;2022-12-18T01:11:15;1.80;99.90
28193;DHT22;15473;50.840;3.396;2022-12-18T01:13:47;1.80;99.90
28193;DHT22;15473;50.840;3.396;2022-12-18T01:16:24;1.80;99.90
28193;DHT22;15473;50.840;3.396;2022-12-18T01:18:54;1.70;99.90
28193;DHT22;15473;50.840;3.396;2022-12-18T01:21:25;1.70;99.90
28193;DHT22;15473;50.840;3.396;2022-12-18T01:24:01;1.70;99.90
28193;DHT22;15473;50.840;3.396;2022-12-18T01:26:35;1.70;99.90
28193;DHT22;15473;50.840;3.396;2022-12-18T01:29:11;1.70;99.90
28193;DHT22;15473;50.840;3.396;2022-12-18T01:31:45;1.70;99.90
28193;DHT22;15473;50.840;3.396;2022-12-18T01:34:15;1.70;99.90
28193;DHT22;15473;50.840;3.396;2022-12-18T01:36:52;1.60;99.90
28193;DHT22;15473;50.840;3.396;2022-12-18T01:39:23;1.60;99.90
28193;DHT22;15473;50.840;3.396;2022-12-18T01:42:08;1.60;99.90
28193;DHT22;15473;50.840;3.396;2022-12-18T01:50:33;1.60;99.90
28193;DHT22;15473;50.840;3.396;2022-12-18T01:53:11;1.50;99.90
28193;DHT22;15473;50.840;3.396;2022-12-18T01:55:50;1.50;99.90
28193;DHT22;15473;50.840;3.396;2022-12-18T02:01:22;1.50;99.90
28193;DHT22;15473;50.840;3.396;2022-12-18T02:04:25;1.50;99.90
28193;DHT22;15473;50.840;3.396;2022-12-18T02:10:20;1.50;99.90
28193;DHT22;15473;50.840;3.396;2022-12-18T02:12:55;1.50;99.90
28193;DHT22;15473;50.840;3.396;2022-12-18T02:18:09;1.40;99.90
28193;DHT22;15473;50.840;3.396;2022-12-18T02:20:48;1.40;99.90
28193;DHT22;15473;50.840;3.396;2022-12-18T02:26:30;1.40;99.90
28193;DHT22;15473;50.840;3.396;2022-12-18T02:29:16;1.40;99.90
28193;DHT22;15473;50.840;3.396;2022-12-18T02:31:56;1.40;99.90
28193;DHT22;15473;50.840;3.396;2022-12-18T02:34:31;1.30;99.90
28193;DHT22;15473;50.840;3.396;2022-12-18T02:37:11;1.30;99.90
28193;DHT22;15473;50.840;3.396;2022-12-18T02:39:49;1.30;99.90
28193;DHT22;15473;50.840;3.396;2022-12-18T02:42:28;1.30;99.90
28193;DHT22;15473;50.840;3.396;2022-12-18T02:45:05;1.30;99.90
28193;DHT22;15473;50.840;3.396;2022-12-18T02:47:45;1.30;99.90
28193;DHT22;15473;50.840;3.396;2022-12-18T02:50:32;1.20;99.90
28193;DHT22;15473;50.840;3.396;2022-12-18T02:56:11;1.20;99.90
28193;DHT22;15473;50.840;3.396;2022-12-18T02:58:56;1.20;99.90
28193;DHT22;15473;50.840;3.396;2022-12-18T03:01:41;1.20;99.90
28193;DHT22;15473;50.840;3.396;2022-12-18T03:04:30;1.10;99.90
28193;DHT22;15473;50.840;3.396;2022-12-18T03:07:01;1.20;99.90
28193;DHT22;15473;50.840;3.396;2022-12-18T03:09:34;1.10;99.90
28193;DHT22;15473;50.840;3.396;2022-12-18T03:12:20;1.10;99.90
28193;DHT22;15473;50.840;3.396;2022-12-18T03:15:08;1.10;99.90
28193;DHT22;15473;50.840;3.396;2022-12-18T03:17:44;1.10;99.90
28193;DHT22;15473;50.840;3.396;2022-12-18T03:20:21;1.00;99.90
28193;DHT22;15473;50.840;3.396;2022-12-18T03:22:57;1.00;99.90
28193;DHT22;15473;50.840;3.396;2022-12-18T03:25:35;1.00;99.90
28193;DHT22;15473;50.840;3.396;2022-12-18T03:28:15;1.00;99.90
28193;DHT22;15473;50.840;3.396;2022-12-18T03:30:47;1.00;99.90
28193;DHT22;15473;50.840;3.396;2022-12-18T03:33:43;1.00;99.90
28193;DHT22;15473;50.840;3.396;2022-12-18T03:36:16;1.00;99.90
28193;DHT22;15473;50.840;3.396;2022-12-18T03:38:52;1.00;99.90
28193;DHT22;15473;50.840;3.396;2022-12-18T03:41:32;0.90;99.90
28193;DHT22;15473;50.840;3.396;2022-12-18T03:44:45;0.90;99.90
28193;DHT22;15473;50.840;3.396;2022-12-18T03:47:27;0.90;99.90
28193;DHT22;15473;50.840;3.396;2022-12-18T03:50:27;0.90;99.90
28193;DHT22;15473;50.840;3.396;2022-12-18T03:56:33;0.90;99.90
28193;DHT22;15473;50.840;3.396;2022-12-18T03:59:11;0.90;99.90
28193;DHT22;15473;50.840;3.396;2022-12-18T04:01:51;0.80;99.90
28193;DHT22;15473;50.840;3.396;2022-12-18T04:07:13;0.90;99.90
28193;DHT22;15473;50.840;3.396;2022-12-18T04:09:59;0.80;99.90
28193;DHT22;15473;50.840;3.396;2022-12-18T04:12:30;0.80;99.90
28193;DHT22;15473;50.840;3.396;2022-12-18T04:15:00;0.80;99.90
28193;DHT22;15473;50.840;3.396;2022-12-18T04:17:37;0.80;99.90
28193;DHT22;15473;50.840;3.396;2022-12-18T04:20:09;0.80;99.90
28193;DHT22;15473;50.840;3.396;2022-12-18T04:22:40;0.80;99.90
28193;DHT22;15473;50.840;3.396;2022-12-18T04:25:11;0.80;99.90
28193;DHT22;15473;50.840;3.396;2022-12-18T04:27:48;0.80;99.90
28193;DHT22;15473;50.840;3.396;2022-12-18T04:30:25;0.80;99.90
28193;DHT22;15473;50.840;3.396;2022-12-18T04:32:55;0.80;99.90
28193;DHT22;15473;50.840;3.396;2022-12-18T04:35:26;0.80;99.90
28193;DHT22;15473;50.840;3.396;2022-12-18T04:37:58;0.70;99.90
28193;DHT22;15473;50.840;3.396;2022-12-18T04:40:29;0.80;99.90
28193;DHT22;15473;50.840;3.396;2022-12-18T04:43:06;0.70;99.90
28193;DHT22;15473;50.840;3.396;2022-12-18T04:45:44;0.80;99.90
28193;DHT22;15473;50.840;3.396;2022-12-18T04:48:20;0.70;99.90
28193;DHT22;15473;50.840;3.396;2022-12-18T04:50:52;0.80;99.90
28193;DHT22;15473;50.840;3.396;2022-12-18T04:53:29;0.70;99.90
28193;DHT22;15473;50.840;3.396;2022-12-18T04:56:12;0.70;99.90
28193;DHT22;15473;50.840;3.396;2022-12-18T04:58:44;0.70;99.90
28193;DHT22;15473;50.840;3.396;2022-12-18T05:01:27;0.70;99.90
28193;DHT22;15473;50.840;3.396;2022-12-18T05:04:04;0.70;99.90
28193;DHT22;15473;50.840;3.396;2022-12-18T05:06:40;0.70;99.90
28193;DHT22;15473;50.840;3.396;2022-12-18T05:09:10;0.70;99.90
28193;DHT22;15473;50.840;3.396;2022-12-18T05:11:48;0.70;99.90
28193;DHT22;15473;50.840;3.396;2022-12-18T05:14:22;0.70;99.90
28193;DHT22;15473;50.840;3.396;2022-12-18T05:16:59;0.70;99.90
28193;DHT22;15473;50.840;3.396;2022-12-18T05:19:36;0.70;99.90
28193;DHT22;15473;50.840;3.396;2022-12-18T05:22:08;0.70;99.90
28193;DHT22;15473;50.840;3.396;2022-12-18T05:24:44;0.70;99.90
28193;DHT22;15473;50.840;3.396;2022-12-18T05:27:14;0.60;99.90
28193;DHT22;15473;50.840;3.396;2022-12-18T05:29:52;0.60;99.90
28193;DHT22;15473;50.840;3.396;2022-12-18T05:32:29;0.60;99.90
28193;DHT22;15473;50.840;3.396;2022-12-18T05:35:07;0.70;99.90
28193;DHT22;15473;50.840;3.396;2022-12-18T05:37:44;0.70;99.90
28193;DHT22;15473;50.840;3.396;2022-12-18T05:40:21;0.70;99.90
28193;DHT22;15473;50.840;3.396;2022-12-18T05:42:51;0.60;99.90
28193;DHT22;15473;50.840;3.396;2022-12-18T05:45:28;0.60;99.90
28193;DHT22;15473;50.840;3.396;2022-12-18T05:48:04;0.70;99.90
28193;DHT22;15473;50.840;3.396;2022-12-18T05:50:42;0.60;99.90
28193;DHT22;15473;50.840;3.396;2022-12-18T05:53:16;0.70;99.90
28193;DHT22;15473;50.840;3.396;2022-12-18T05:55:48;0.70;99.90
28193;DHT22;15473;50.840;3.396;2022-12-18T05:58:18;0.60;99.90
28193;DHT22;15473;50.840;3.396;2022-12-18T06:00:54;0.70;99.90
28193;DHT22;15473;50.840;3.396;2022-12-18T06:03:26;0.70;99.90
28193;DHT22;15473;50.840;3.396;2022-12-18T06:05:56;0.60;99.90
28193;DHT22;15473;50.840;3.396;2022-12-18T06:08:26;0.60;99.90
28193;DHT22;15473;50.840;3.396;2022-12-18T06:11:05;0.60;99.90
28193;DHT22;15473;50.840;3.396;2022-12-18T06:13:42;0.70;99.90
28193;DHT22;15473;50.840;3.396;2022-12-18T06:16:18;0.60;99.90
28193;DHT22;15473;50.840;3.396;2022-12-18T06:18:50;0.60;99.90
28193;DHT22;15473;50.840;3.396;2022-12-18T06:21:27;0.60;99.90
28193;DHT22;15473;50.840;3.396;2022-12-18T06:23:58;0.70;99.90
28193;DHT22;15473;50.840;3.396;2022-12-18T06:26:34;0.70;99.90
28193;DHT22;15473;50.840;3.396;2022-12-18T06:29:12;0.70;99.90
28193;DHT22;15473;50.840;3.396;2022-12-18T06:31:43;0.70;99.90
28193;DHT22;15473;50.840;3.396;2022-12-18T06:34:20;0.70;99.90
28193;DHT22;15473;50.840;3.396;2022-12-18T06:36:57;0.70;99.90
28193;DHT22;15473;50.840;3.396;2022-12-18T06:39:34;0.70;99.90
28193;DHT22;15473;50.840;3.396;2022-12-18T06:42:11;0.70;99.90
28193;DHT22;15473;50.840;3.396;2022-12-18T06:44:43;0.70;99.90
28193;DHT22;15473;50.840;3.396;2022-12-18T06:47:20;0.70;99.90
28193;DHT22;15473;50.840;3.396;2022-12-18T06:50:16;0.70;99.90
28193;DHT22;15473;50.840;3.396;2022-12-18T06:52:52;0.70;99.90
28193;DHT22;15473;50.840;3.396;2022-12-18T06:55:30;0.70;99.90
28193;DHT22;15473;50.840;3.396;2022-12-18T06:58:06;0.70;99.90
28193;DHT22;15473;50.840;3.396;2022-12-18T07:00:39;0.70;99.90
28193;DHT22;15473;50.840;3.396;2022-12-18T07:03:16;0.70;99.90
28193;DHT22;15473;50.840;3.396;2022-12-18T07:05:53;0.70;99.90
28193;DHT22;15473;50.840;3.396;2022-12-18T07:08:33;0.70;99.90
28193;DHT22;15473;50.840;3.396;2022-12-18T07:11:04;0.70;99.90
28193;DHT22;15473;50.840;3.396;2022-12-18T07:13:34;0.70;99.90
28193;DHT22;15473;50.840;3.396;2022-12-18T07:16:13;0.70;99.90
28193;DHT22;15473;50.840;3.396;2022-12-18T07:18:50;0.70;99.90
28193;DHT22;15473;50.840;3.396;2022-12-18T07:21:27;0.70;99.90
28193;DHT22;15473;50.840;3.396;2022-12-18T07:23:57;0.70;99.90
28193;DHT22;15473;50.840;3.396;2022-12-18T07:26:27;0.70;99.90
28193;DHT22;15473;50.840;3.396;2022-12-18T07:29:03;0.70;99.90
28193;DHT22;15473;50.840;3.396;2022-12-18T07:31:40;0.70;99.90
28193;DHT22;15473;50.840;3.396;2022-12-18T07:34:17;0.70;99.90
28193;DHT22;15473;50.840;3.396;2022-12-18T07:36:54;0.70;99.90
28193;DHT22;15473;50.840;3.396;2022-12-18T07:39:24;0.70;99.90
28193;DHT22;15473;50.840;3.396;2022-12-18T07:41:54;0.70;99.90
28193;DHT22;15473;50.840;3.396;2022-12-18T07:44:50;0.70;99.90
28193;DHT22;15473;50.840;3.396;2022-12-18T07:47:20;0.70;99.90
28193;DHT22;15473;50.840;3.396;2022-12-18T07:50:01;0.70;99.90
28193;DHT22;15473;50.840;3.396;2022-12-18T07:52:31;0.70;99.90
28193;DHT22;15473;50.840;3.396;2022-12-18T07:55:07;0.70;99.90
28193;DHT22;15473;50.840;3.396;2022-12-18T07:57:37;0.70;99.90
28193;DHT22;15473;50.840;3.396;2022-12-18T08:00:09;0.70;99.90
28193;DHT22;15473;50.840;3.396;2022-12-18T08:02:46;0.80;99.90
28193;DHT22;15473;50.840;3.396;2022-12-18T08:05:16;0.80;99.90
28193;DHT22;15473;50.840;3.396;2022-12-18T08:08:01;0.80;99.90
28193;DHT22;15473;50.840;3.396;2022-12-18T08:10:43;0.90;99.90
28193;DHT22;15473;50.840;3.396;2022-12-18T08:13:20;1.00;99.90
28193;DHT22;15473;50.840;3.396;2022-12-18T08:16:02;1.10;99.90
28193;DHT22;15473;50.840;3.396;2022-12-18T08:18:39;1.20;99.90
28193;DHT22;15473;50.840;3.396;2022-12-18T08:21:10;1.30;99.90
28193;DHT22;15473;50.840;3.396;2022-12-18T08:23:40;1.40;99.90
28193;DHT22;15473;50.840;3.396;2022-12-18T08:26:12;1.50;99.90
28193;DHT22;15473;50.840;3.396;2022-12-18T08:28:50;1.60;99.90
28193;DHT22;15473;50.840;3.396;2022-12-18T08:31:28;1.80;99.90
28193;DHT22;15473;50.840;3.396;2022-12-18T08:33:58;1.90;99.90
28193;DHT22;15473;50.840;3.396;2022-12-18T08:36:34;2.00;99.90
28193;DHT22;15473;50.840;3.396;2022-12-18T08:39:11;2.20;99.90
28193;DHT22;15473;50.840;3.396;2022-12-18T08:41:48;2.30;99.90
28193;DHT22;15473;50.840;3.396;2022-12-18T08:44:19;2.50;99.90
28193;DHT22;15473;50.840;3.396;2022-12-18T08:47:08;2.60;99.90
28193;DHT22;15473;50.840;3.396;2022-12-18T08:49:44;2.80;99.90
28193;DHT22;15473;50.840;3.396;2022-12-18T08:52:21;2.90;99.90
28193;DHT22;15473;50.840;3.396;2022-12-18T08:54:58;3.10;99.90
28193;DHT22;15473;50.840;3.396;2022-12-18T08:57:28;3.20;99.90
28193;DHT22;15473;50.840;3.396;2022-12-18T08:59:58;3.30;99.90
28193;DHT22;15473;50.840;3.396;2022-12-18T09:02:41;3.40;99.90
28193;DHT22;15473;50.840;3.396;2022-12-18T09:05:18;3.50;99.90
28193;DHT22;15473;50.840;3.396;2022-12-18T09:07:50;3.60;99.90
28193;DHT22;15473;50.840;3.396;2022-12-18T09:10:27;3.70;99.90
28193;DHT22;15473;50.840;3.396;2022-12-18T09:13:03;3.90;99.90
28193;DHT22;15473;50.840;3.396;2022-12-18T09:15:48;4.00;99.90
28193;DHT22;15473;50.840;3.396;2022-12-18T09:18:25;4.10;99.90
28193;DHT22;15473;50.840;3.396;2022-12-18T09:21:11;4.20;99.90
28193;DHT22;15473;50.840;3.396;2022-12-18T09:23:42;4.30;99.90
28193;DHT22;15473;50.840;3.396;2022-12-18T09:26:18;4.50;99.90
28193;DHT22;15473;50.840;3.396;2022-12-18T09:28:55;4.60;99.90
28193;DHT22;15473;50.840;3.396;2022-12-18T09:31:25;4.70;99.90
28193;DHT22;15473;50.840;3.396;2022-12-18T09:33:56;4.80;99.90
28193;DHT22;15473;50.840;3.396;2022-12-18T09:36:26;4.90;99.90
28193;DHT22;15473;50.840;3.396;2022-12-18T09:39:03;4.90;99.90
28193;DHT22;15473;50.840;3.396;2022-12-18T09:41:56;5.10;99.90
28193;DHT22;15473;50.840;3.396;2022-12-18T09:44:36;5.10;99.90
28193;DHT22;15473;50.840;3.396;2022-12-18T09:47:09;5.30;99.90
28193;DHT22;15473;50.840;3.396;2022-12-18T09:49:49;5.40;99.90
28193;DHT22;15473;50.840;3.396;2022-12-18T09:52:36;5.40;99.90
28193;DHT22;15473;50.840;3.396;2022-12-18T09:55:24;5.50;99.90
28193;DHT22;15473;50.840;3.396;2022-12-18T09:57:49;5.60;99.90
28193;DHT22;15473;50.840;3.396;2022-12-18T10:00:21;5.70;99.90
28193;DHT22;15473;50.840;3.396;2022-12-18T10:02:56;5.70;99.90
28193;DHT22;15473;50.840;3.396;2022-12-18T10:05:37;5.80;99.90
28193;DHT22;15473;50.840;3.396;2022-12-18T10:08:39;5.90;99.90
28193;DHT22;15473;50.840;3.396;2022-12-18T10:20:29;6.00;99.90
28193;DHT22;15473;50.840;3.396;2022-12-18T10:25:53;6.10;99.90
28193;DHT22;15473;50.840;3.396;2022-12-18T10:28:22;6.10;99.90
28193;DHT22;15473;50.840;3.396;2022-12-18T10:30:55;6.10;99.90
28193;DHT22;15473;50.840;3.396;2022-12-18T10:33:33;6.20;99.90
28193;DHT22;15473;50.840;3.396;2022-12-18T10:36:04;6.30;99.90
28193;DHT22;15473;50.840;3.396;2022-12-18T10:38:41;6.30;99.90
28193;DHT22;15473;50.840;3.396;2022-12-18T10:46:50;6.40;99.90
28193;DHT22;15473;50.840;3.396;2022-12-18T10:49:30;6.50;99.90
28193;DHT22;15473;50.840;3.396;2022-12-18T10:52:15;6.40;99.90
28193;DHT22;15473;50.840;3.396;2022-12-18T10:54:50;6.50;99.90
28193;DHT22;15473;50.840;3.396;2022-12-18T11:02:59;6.50;99.90
28193;DHT22;15473;50.840;3.396;2022-12-18T11:05:35;6.60;99.90
28193;DHT22;15473;50.840;3.396;2022-12-18T11:08:11;6.60;99.90
28193;DHT22;15473;50.840;3.396;2022-12-18T11:10:38;6.60;99.90
28193;DHT22;15473;50.840;3.396;2022-12-18T11:13:20;6.60;99.90
28193;DHT22;15473;50.840;3.396;2022-12-18T11:15:51;6.70;99.90
28193;DHT22;15473;50.840;3.396;2022-12-18T11:21:04;6.80;99.90
28193;DHT22;15473;50.840;3.396;2022-12-18T11:23:31;6.80;99.90
28193;DHT22;15473;50.840;3.396;2022-12-18T11:26:03;6.80;99.90
28193;DHT22;15473;50.840;3.396;2022-12-18T11:28:52;6.90;99.90
28193;DHT22;15473;50.840;3.396;2022-12-18T11:31:25;6.90;99.90
28193;DHT22;15473;50.840;3.396;2022-12-18T11:36:50;7.00;99.90
28193;DHT22;15473;50.840;3.396;2022-12-18T11:40:18;7.00;99.90
28193;DHT22;15473;50.840;3.396;2022-12-18T11:42:20;7.00;99.90
28193;DHT22;15473;50.840;3.396;2022-12-18T11:44:59;6.70;99.90
28193;DHT22;15473;50.840;3.396;2022-12-18T11:47:51;6.30;99.90
28193;DHT22;15473;50.840;3.396;2022-12-18T11:50:30;6.00;99.90
28193;DHT22;15473;50.840;3.396;2022-12-18T11:53:11;5.60;99.90
28193;DHT22;15473;50.840;3.396;2022-12-18T11:56:12;5.40;99.90
28193;DHT22;15473;50.840;3.396;2022-12-18T12:01:58;4.90;99.90
28193;DHT22;15473;50.840;3.396;2022-12-18T12:04:46;4.70;99.90
28193;DHT22;15473;50.840;3.396;2022-12-18T12:07:35;4.50;99.90
28193;DHT22;15473;50.840;3.396;2022-12-18T12:10:08;4.40;99.90
28193;DHT22;15473;50.840;3.396;2022-12-18T12:18:48;4.00;99.90
28193;DHT22;15473;50.840;3.396;2022-12-18T12:21:35;4.00;99.90
28193;DHT22;15473;50.840;3.396;2022-12-18T12:27:10;3.80;99.90
28193;DHT22;15473;50.840;3.396;2022-12-18T12:32:45;3.80;99.90
28193;DHT22;15473;50.840;3.396;2022-12-18T12:35:48;3.80;99.90
28193;DHT22;15473;50.840;3.396;2022-12-18T12:38:31;3.80;99.90
28193;DHT22;15473;50.840;3.396;2022-12-18T12:41:06;3.70;99.90
28193;DHT22;15473;50.840;3.396;2022-12-18T12:43:47;3.70;99.90
28193;DHT22;15473;50.840;3.396;2022-12-18T12:46:19;3.60;99.90
28193;DHT22;15473;50.840;3.396;2022-12-18T12:49:00;3.60;99.90
28193;DHT22;15473;50.840;3.396;2022-12-18T12:51:37;3.60;99.90
28193;DHT22;15473;50.840;3.396;2022-12-18T12:54:11;3.60;99.90
28193;DHT22;15473;50.840;3.396;2022-12-18T12:57:02;3.50;99.90
28193;DHT22;15473;50.840;3.396;2022-12-18T13:05:53;3.40;99.90
28193;DHT22;15473;50.840;3.396;2022-12-18T13:08:25;3.30;99.90
28193;DHT22;15473;50.840;3.396;2022-12-18T13:11:02;3.30;99.90
28193;DHT22;15473;50.840;3.396;2022-12-18T13:16:44;3.30;99.90
28193;DHT22;15473;50.840;3.396;2022-12-18T13:19:25;3.20;99.90
28193;DHT22;15473;50.840;3.396;2022-12-18T13:21:57;3.20;99.90
28193;DHT22;15473;50.840;3.396;2022-12-18T13:24:34;3.10;99.90
28193;DHT22;15473;50.840;3.396;2022-12-18T13:41:23;2.80;99.90
28193;DHT22;15473;50.840;3.396;2022-12-18T13:44:32;2.80;99.90
28193;DHT22;15473;50.840;3.396;2022-12-18T13:47:05;2.70;99.90
28193;DHT22;15473;50.840;3.396;2022-12-18T13:49:44;2.70;99.90
28193;DHT22;15473;50.840;3.396;2022-12-18T13:52:33;2.60;99.90
28193;DHT22;15473;50.840;3.396;2022-12-18T13:55:07;2.60;99.90
28193;DHT22;15473;50.840;3.396;2022-12-18T13:57:45;2.50;99.90
28193;DHT22;15473;50.840;3.396;2022-12-18T14:00:26;2.50;99.90
28193;DHT22;15473;50.840;3.396;2022-12-18T14:02:58;2.40;99.90
28193;DHT22;15473;50.840;3.396;2022-12-18T14:05:30;2.40;99.90
28193;DHT22;15473;50.840;3.396;2022-12-18T14:11:06;2.30;99.90
28193;DHT22;15473;50.840;3.396;2022-12-18T14:13:40;2.20;99.90
28193;DHT22;15473;50.840;3.396;2022-12-18T14:16:17;2.20;99.90
28193;DHT22;15473;50.840;3.396;2022-12-18T14:18:56;2.20;99.90
28193;DHT22;15473;50.840;3.396;2022-12-18T14:21:34;2.10;99.90
28193;DHT22;15473;50.840;3.396;2022-12-18T14:24:20;2.10;99.90
28193;DHT22;15473;50.840;3.396;2022-12-18T14:26:50;2.00;99.90
28193;DHT22;15473;50.840;3.396;2022-12-18T14:29:31;1.90;99.90
28193;DHT22;15473;50.840;3.396;2022-12-18T14:32:19;1.80;99.90
28193;DHT22;15473;50.840;3.396;2022-12-18T14:34:51;1.80;99.90
28193;DHT22;15473;50.840;3.396;2022-12-18T14:37:41;1.80;99.90
28193;DHT22;15473;50.840;3.396;2022-12-18T14:40:13;1.70;99.90
28193;DHT22;15473;50.840;3.396;2022-12-18T14:42:43;1.70;99.90
28193;DHT22;15473;50.840;3.396;2022-12-18T14:45:38;1.60;99.90
28193;DHT22;15473;50.840;3.396;2022-12-18T14:54:04;1.50;99.90
28193;DHT22;15473;50.840;3.396;2022-12-18T14:56:54;1.40;99.90
28193;DHT22;15473;50.840;3.396;2022-12-18T14:59:25;1.40;99.90
28193;DHT22;15473;50.840;3.396;2022-12-18T15:04:41;1.20;99.90
28193;DHT22;15473;50.840;3.396;2022-12-18T15:07:25;1.20;99.90
28193;DHT22;15473;50.840;3.396;2022-12-18T15:10:21;1.20;99.90
28193;DHT22;15473;50.840;3.396;2022-12-18T15:18:26;1.00;99.90
28193;DHT22;15473;50.840;3.396;2022-12-18T15:20:56;1.00;99.90
28193;DHT22;15473;50.840;3.396;2022-12-18T15:26:23;1.00;99.90
28193;DHT22;15473;50.840;3.396;2022-12-18T15:29:00;0.90;99.90
28193;DHT22;15473;50.840;3.396;2022-12-18T15:31:33;0.90;99.90
28193;DHT22;15473;50.840;3.396;2022-12-18T15:34:18;0.80;99.90
28193;DHT22;15473;50.840;3.396;2022-12-18T15:36:46;0.80;99.90
28193;DHT22;15473;50.840;3.396;2022-12-18T15:39:16;0.80;99.90
28193;DHT22;15473;50.840;3.396;2022-12-18T15:41:53;0.80;99.90
28193;DHT22;15473;50.840;3.396;2022-12-18T15:44:43;0.80;99.90
28193;DHT22;15473;50.840;3.396;2022-12-18T15:47:13;0.70;99.90
28193;DHT22;15473;50.840;3.396;2022-12-18T15:49:45;0.70;99.90
28193;DHT22;15473;50.840;3.396;2022-12-18T15:52:15;0.70;99.90
28193;DHT22;15473;50.840;3.396;2022-12-18T15:54:53;0.70;99.90
28193;DHT22;15473;50.840;3.396;2022-12-18T15:57:45;0.70;99.90
28193;DHT22;15473;50.840;3.396;2022-12-18T16:00:22;0.60;99.90
28193;DHT22;15473;50.840;3.396;2022-12-18T16:02:53;0.60;99.90
28193;DHT22;15473;50.840;3.396;2022-12-18T16:05:31;0.60;99.90
28193;DHT22;15473;50.840;3.396;2022-12-18T16:11:26;0.60;99.90
28193;DHT22;15473;50.840;3.396;2022-12-18T16:14:25;0.60;99.90
28193;DHT22;15473;50.840;3.396;2022-12-18T16:20:16;0.60;99.90
28193;DHT22;15473;50.840;3.396;2022-12-18T16:22:47;0.50;99.90
28193;DHT22;15473;50.840;3.396;2022-12-18T16:25:29;0.60;99.90
28193;DHT22;15473;50.840;3.396;2022-12-18T16:28:16;0.50;99.90
28193;DHT22;15473;50.840;3.396;2022-12-18T16:31:17;0.60;99.90
28193;DHT22;15473;50.840;3.396;2022-12-18T16:37:11;0.60;99.90
28193;DHT22;15473;50.840;3.396;2022-12-18T16:39:53;0.60;99.90
28193;DHT22;15473;50.840;3.396;2022-12-18T16:42:23;0.60;99.90
28193;DHT22;15473;50.840;3.396;2022-12-18T16:44:54;0.60;99.90
28193;DHT22;15473;50.840;3.396;2022-12-18T16:47:24;0.60;99.90
28193;DHT22;15473;50.840;3.396;2022-12-18T16:49:54;0.60;99.90
28193;DHT22;15473;50.840;3.396;2022-12-18T16:52:24;0.60;99.90
28193;DHT22;15473;50.840;3.396;2022-12-18T16:55:01;0.60;99.90
28193;DHT22;15473;50.840;3.396;2022-12-18T16:57:38;0.70;99.90
28193;DHT22;15473;50.840;3.396;2022-12-18T17:00:12;0.80;99.90
28193;DHT22;15473;50.840;3.396;2022-12-18T17:02:43;1.00;99.90
28193;DHT22;15473;50.840;3.396;2022-12-18T17:05:14;1.30;99.90
28193;DHT22;15473;50.840;3.396;2022-12-18T17:07:46;1.60;99.90
28193;DHT22;15473;50.840;3.396;2022-12-18T17:10:29;1.80;99.90
28193;DHT22;15473;50.840;3.396;2022-12-18T17:12:59;2.10;99.90
28193;DHT22;15473;50.840;3.396;2022-12-18T17:15:29;2.40;99.90
28193;DHT22;15473;50.840;3.396;2022-12-18T17:18:03;2.60;99.90
28193;DHT22;15473;50.840;3.396;2022-12-18T17:20:45;2.80;99.90
28193;DHT22;15473;50.840;3.396;2022-12-18T17:23:15;3.00;99.90
28193;DHT22;15473;50.840;3.396;2022-12-18T17:25:45;3.20;99.90
28193;DHT22;15473;50.840;3.396;2022-12-18T17:28:22;3.40;99.90
28193;DHT22;15473;50.840;3.396;2022-12-18T17:31:00;3.50;99.90
28193;DHT22;15473;50.840;3.396;2022-12-18T17:33:50;3.70;99.90
28193;DHT22;15473;50.840;3.396;2022-12-18T17:36:38;3.90;99.90
28193;DHT22;15473;50.840;3.396;2022-12-18T17:39:30;4.00;99.90
28193;DHT22;15473;50.840;3.396;2022-12-18T17:42:17;4.20;99.90
28193;DHT22;15473;50.840;3.396;2022-12-18T17:45:04;4.30;99.90
28193;DHT22;15473;50.840;3.396;2022-12-18T17:47:53;4.40;99.90
28193;DHT22;15473;50.840;3.396;2022-12-18T17:50:39;4.50;99.90
28193;DHT22;15473;50.840;3.396;2022-12-18T17:53:25;4.60;99.90
28193;DHT22;15473;50.840;3.396;2022-12-18T17:56:20;4.70;99.90
28193;DHT22;15473;50.840;3.396;2022-12-18T17:59:06;4.80;99.90
28193;DHT22;15473;50.840;3.396;2022-12-18T18:01:59;4.90;99.90
28193;DHT22;15473;50.840;3.396;2022-12-18T18:04:51;5.00;99.90
28193;DHT22;15473;50.840;3.396;2022-12-18T18:07:41;5.00;99.90
28193;DHT22;15473;50.840;3.396;2022-12-18T18:10:28;5.10;99.90
28193;DHT22;15473;50.840;3.396;2022-12-18T18:13:20;5.10;99.90
28193;DHT22;15473;50.840;3.396;2022-12-18T18:16:31;5.20;99.90
28193;DHT22;15473;50.840;3.396;2022-12-18T18:19:16;5.30;99.90
28193;DHT22;15473;50.840;3.396;2022-12-18T18:22:04;5.30;99.90
28193;DHT22;15473;50.840;3.396;2022-12-18T18:24:51;5.40;99.90
28193;DHT22;15473;50.840;3.396;2022-12-18T18:27:37;5.40;99.90
28193;DHT22;15473;50.840;3.396;2022-12-18T18:30:24;5.40;99.90
28193;DHT22;15473;50.840;3.396;2022-12-18T18:33:10;5.50;99.90
28193;DHT22;15473;50.840;3.396;2022-12-18T18:35:56;5.60;99.90
28193;DHT22;15473;50.840;3.396;2022-12-18T18:38:43;5.60;99.90
28193;DHT22;15473;50.840;3.396;2022-12-18T18:41:36;5.60;99.90
28193;DHT22;15473;50.840;3.396;2022-12-18T18:44:30;5.70;99.90
28193;DHT22;15473;50.840;3.396;2022-12-18T18:47:19;5.80;99.90
28193;DHT22;15473;50.840;3.396;2022-12-18T18:50:06;5.80;99.90
28193;DHT22;15473;50.840;3.396;2022-12-18T18:52:54;5.80;99.90
28193;DHT22;15473;50.840;3.396;2022-12-18T18:55:42;5.90;99.90
28193;DHT22;15473;50.840;3.396;2022-12-18T18:58:29;5.90;99.90